createdAt,value
2019-05-19T00:00:35.920Z,100723.44
2019-05-19T00:03:42.958Z,100722.84
2019-05-19T00:06:47.369Z,100724.64
2019-05-19T00:09:51.665Z,100726.39
2019-05-19T00:12:59.839Z,100720.83
2019-05-19T00:16:04.216Z,100716.34
2019-05-19T00:19:08.515Z,100721.52
2019-05-19T00:22:12.827Z,100715.95
2019-05-19T00:25:18.936Z,100721.93
2019-05-19T00:28:23.322Z,100719.83
2019-05-19T00:31:27.593Z,100719.59
2019-05-19T00:34:31.890Z,100715.34
2019-05-19T00:37:36.280Z,100721.41
2019-05-19T00:40:40.591Z,100718.87
2019-05-19T00:43:44.993Z,100720.52
2019-05-19T00:46:49.338Z,100721.25
2019-05-19T00:49:53.639Z,100723.44
2019-05-19T00:52:58.205Z,100722.36
2019-05-19T00:56:03.338Z,100719.03
2019-05-19T00:59:09.057Z,100717.97
2019-05-19T01:02:13.347Z,100718.13
2019-05-19T01:05:20.598Z,100708.55
2019-05-19T01:08:23.704Z,100720.64
2019-05-19T01:11:27.993Z,100721.97
2019-05-19T01:14:32.413Z,100723.66
2019-05-19T01:17:36.910Z,100729.89
2019-05-19T01:20:41.198Z,100719.16
2019-05-19T01:23:45.640Z,100719.16
2019-05-19T01:26:49.957Z,100718.95
2019-05-19T01:29:54.267Z,100715.88
2019-05-19T01:32:58.567Z,100708.03
2019-05-19T01:36:02.930Z,100699.97
2019-05-19T01:39:07.754Z,100699.97
2019-05-19T01:42:12.073Z,100704.98
2019-05-19T01:45:17.550Z,100693.15
2019-05-19T01:48:21.844Z,100694.27
2019-05-19T01:51:26.397Z,100688.12
2019-05-19T01:54:30.690Z,100688.12
2019-05-19T01:57:34.996Z,100697.61
2019-05-19T02:00:39.281Z,100699.28
2019-05-19T02:03:43.699Z,100698.13
2019-05-19T02:06:48.133Z,100693.00
2019-05-19T02:09:52.491Z,100689.88
2019-05-19T02:12:56.800Z,100684.09
2019-05-19T02:16:01.120Z,100682.49
2019-05-19T02:19:05.709Z,100660.64
2019-05-19T02:22:10.129Z,100659.80
2019-05-19T02:25:14.699Z,100668.94
2019-05-19T02:28:19.028Z,100667.22
2019-05-19T02:31:23.351Z,100675.58
2019-05-19T02:34:27.665Z,100677.22
2019-05-19T02:37:32.013Z,100656.69
2019-05-19T02:40:39.701Z,100674.95
2019-05-19T02:43:45.017Z,100677.58
2019-05-19T02:46:51.814Z,100686.46
2019-05-19T02:49:57.686Z,100675.01
2019-05-19T02:53:03.222Z,100677.06
2019-05-19T02:56:07.742Z,100680.19
2019-05-19T02:59:13.134Z,100683.03
2019-05-19T03:02:17.434Z,100681.27
2019-05-19T03:05:21.718Z,100682.16
2019-05-19T03:08:26.037Z,100686.31
2019-05-19T03:11:30.340Z,100683.58
2019-05-19T03:14:34.644Z,100683.64
2019-05-19T03:17:40.655Z,100687.73
2019-05-19T03:20:44.961Z,100681.58
2019-05-19T03:23:49.250Z,100685.70
2019-05-19T03:26:53.612Z,100696.03
2019-05-19T03:29:59.794Z,100701.10
2019-05-19T03:33:05.291Z,100683.92
2019-05-19T03:36:10.239Z,100694.25
2019-05-19T03:39:14.573Z,100687.79
2019-05-19T03:42:18.892Z,100693.27
2019-05-19T03:45:23.191Z,100690.91
2019-05-19T03:48:29.582Z,100694.25
2019-05-19T03:51:33.866Z,100697.27
2019-05-19T03:54:38.271Z,100693.06
2019-05-19T03:57:42.567Z,100697.27
2019-05-19T04:00:48.754Z,100698.74
2019-05-19T04:03:53.041Z,100706.63
2019-05-19T04:06:57.330Z,100701.81
2019-05-19T04:10:01.650Z,100710.63
2019-05-19T04:13:06.093Z,100710.77
2019-05-19T04:16:10.352Z,100708.80
2019-05-19T04:19:14.654Z,100712.19
2019-05-19T04:22:19.002Z,100712.59
2019-05-19T04:25:23.281Z,100714.59
2019-05-19T04:28:28.601Z,100715.34
2019-05-19T04:31:32.910Z,100719.67
2019-05-19T04:34:38.390Z,100722.78
2019-05-19T04:37:42.663Z,100712.89
2019-05-19T04:40:48.168Z,100711.16
2019-05-19T04:43:52.513Z,100702.38
2019-05-19T04:46:56.891Z,100705.41
2019-05-19T04:50:01.378Z,100702.33
2019-05-19T04:53:05.686Z,100724.34
2019-05-19T04:56:10.058Z,100728.69
2019-05-19T04:59:14.355Z,100721.31
2019-05-19T05:02:18.664Z,100725.25
2019-05-19T05:05:25.002Z,100721.09
2019-05-19T05:08:30.978Z,100714.56
2019-05-19T05:11:35.319Z,100707.67
2019-05-19T05:14:39.625Z,100721.98
2019-05-19T05:17:43.908Z,100718.81
2019-05-19T05:20:48.226Z,100714.81
2019-05-19T05:23:52.535Z,100714.81
2019-05-19T05:26:56.832Z,100714.75
2019-05-19T05:30:01.147Z,100693.06
2019-05-19T05:33:05.431Z,100710.64
2019-05-19T05:36:11.560Z,100705.37
2019-05-19T05:39:15.889Z,100709.30
2019-05-19T05:42:20.308Z,100717.88
2019-05-19T05:45:24.614Z,100706.69
2019-05-19T05:48:28.920Z,100713.37
2019-05-19T05:51:33.220Z,100713.82
2019-05-19T05:54:37.532Z,100713.82
2019-05-19T05:57:41.860Z,100719.00
2019-05-19T06:00:46.262Z,100729.10
2019-05-19T06:03:50.550Z,100728.23
2019-05-19T06:06:54.852Z,100727.69
2019-05-19T06:09:59.205Z,100738.66
2019-05-19T06:13:03.515Z,100741.27
2019-05-19T06:16:07.829Z,100748.31
2019-05-19T06:19:12.136Z,100749.58
2019-05-19T06:22:16.444Z,100742.81
2019-05-19T06:25:22.489Z,100740.48
2019-05-19T06:28:26.867Z,100742.92
2019-05-19T06:31:32.971Z,100743.25
2019-05-19T06:34:37.319Z,100748.95
2019-05-19T06:37:44.139Z,100745.00
2019-05-19T06:40:48.459Z,100734.19
2019-05-19T06:43:52.757Z,100739.82
2019-05-19T06:46:57.050Z,100727.61
2019-05-19T06:50:02.556Z,100727.61
2019-05-19T06:53:14.158Z,100727.00
2019-05-19T06:56:13.080Z,100727.00
2019-05-19T06:59:17.391Z,100747.06
2019-05-19T07:02:21.878Z,100734.95
2019-05-19T07:05:26.216Z,100692.27
2019-05-19T07:08:30.492Z,100724.51
2019-05-19T07:11:34.817Z,100735.18
2019-05-19T07:14:39.124Z,100731.27
2019-05-19T07:17:43.434Z,100731.27
2019-05-19T07:20:49.155Z,100731.70
2019-05-19T07:23:53.572Z,100731.70
2019-05-19T07:27:00.903Z,100741.23
2019-05-19T07:30:05.826Z,100749.05
2019-05-19T07:33:10.250Z,100736.66
2019-05-19T07:36:14.600Z,100748.02
2019-05-19T07:39:21.710Z,100752.89
2019-05-19T07:42:26.143Z,100757.41
2019-05-19T07:45:31.914Z,100767.22
2019-05-19T07:48:36.443Z,100760.61
2019-05-19T07:51:40.740Z,100764.09
2019-05-19T07:54:45.066Z,100759.72
2019-05-19T07:57:49.392Z,100769.80
2019-05-19T08:00:53.725Z,100759.06
2019-05-19T08:04:00.975Z,100756.81
2019-05-19T08:07:05.285Z,100754.66
2019-05-19T08:10:10.107Z,100752.58
2019-05-19T08:13:14.388Z,100749.16
2019-05-19T08:16:21.165Z,100746.61
2019-05-19T08:19:25.479Z,100746.61
2019-05-19T08:22:29.793Z,100742.95
2019-05-19T08:25:34.149Z,100743.72
2019-05-19T08:28:38.524Z,100743.72
2019-05-19T08:31:42.841Z,100742.94
2019-05-19T08:34:47.132Z,100746.14
2019-05-19T08:37:52.717Z,100755.98
2019-05-19T08:40:57.057Z,100743.20
2019-05-19T08:44:01.443Z,100755.89
2019-05-19T08:47:06.843Z,100752.83
2019-05-19T08:50:11.142Z,100759.73
2019-05-19T08:53:15.437Z,100754.92
2019-05-19T08:56:19.741Z,100759.61
2019-05-19T08:59:24.034Z,100750.08
2019-05-19T09:02:28.338Z,100769.53
2019-05-19T09:05:32.654Z,100757.53
2019-05-19T09:08:36.951Z,100757.74
2019-05-19T09:11:42.726Z,100753.20
2019-05-19T09:14:47.042Z,100753.20
2019-05-19T09:17:54.115Z,100763.09
2019-05-19T09:20:57.398Z,100743.98
2019-05-19T09:24:01.681Z,100743.98
2019-05-19T09:27:06.137Z,100756.33
2019-05-19T09:30:11.006Z,100753.55
2019-05-19T09:33:15.386Z,100751.69
2019-05-19T09:36:20.684Z,100746.17
2019-05-19T09:39:24.989Z,100741.34
2019-05-19T09:42:29.305Z,100750.08
2019-05-19T09:45:33.701Z,100745.77
2019-05-19T09:48:38.013Z,100734.77
2019-05-19T09:51:42.310Z,100738.50
2019-05-19T09:54:47.727Z,100735.37
2019-05-19T09:57:53.793Z,100738.22
2019-05-19T10:00:58.099Z,100741.27
2019-05-19T10:04:02.384Z,100725.05
2019-05-19T10:07:07.665Z,100738.95
2019-05-19T10:10:22.643Z,100745.73
2019-05-19T10:13:26.965Z,100737.69
2019-05-19T10:16:31.287Z,100739.45
2019-05-19T10:19:35.593Z,100737.96
2019-05-19T10:22:41.043Z,100730.66
2019-05-19T10:25:46.839Z,100731.36
2019-05-19T10:28:51.162Z,100735.89
2019-05-19T10:31:55.551Z,100738.59
2019-05-19T10:34:59.836Z,100733.22
2019-05-19T10:38:04.126Z,100738.92
2019-05-19T10:41:09.540Z,100738.18
2019-05-19T10:44:13.825Z,100743.47
2019-05-19T10:47:18.163Z,100743.34
2019-05-19T10:50:22.440Z,100742.88
2019-05-19T10:53:26.883Z,100737.59
2019-05-19T10:56:31.166Z,100740.58
2019-05-19T10:59:35.443Z,100731.27
2019-05-19T11:02:39.758Z,100731.34
2019-05-19T11:05:44.181Z,100729.58
2019-05-19T11:08:48.790Z,100724.77
2019-05-19T11:11:53.304Z,100722.00
2019-05-19T11:14:57.574Z,100726.16
2019-05-19T11:18:01.918Z,100717.89
2019-05-19T11:21:06.200Z,100723.91
2019-05-19T11:24:10.581Z,100722.45
2019-05-19T11:27:15.206Z,100722.33
2019-05-19T11:30:19.484Z,100722.45
2019-05-19T11:33:25.247Z,100715.61
2019-05-19T11:36:29.566Z,100718.37
2019-05-19T11:39:34.000Z,100709.70
2019-05-19T11:42:38.289Z,100714.27
2019-05-19T11:45:42.595Z,100709.53
2019-05-19T11:48:46.889Z,100712.13
2019-05-19T11:51:51.205Z,100705.88
2019-05-19T11:54:55.495Z,100708.95
2019-05-19T11:57:59.897Z,100702.91
2019-05-19T12:01:04.190Z,100697.22
2019-05-19T12:04:08.557Z,100704.23
2019-05-19T12:07:12.871Z,100706.86
2019-05-19T12:10:17.166Z,100705.47
2019-05-19T12:13:21.463Z,100704.03
2019-05-19T12:16:25.774Z,100707.62
2019-05-19T12:19:30.281Z,100705.26
2019-05-19T12:22:34.979Z,100710.95
2019-05-19T12:25:39.316Z,100703.98
2019-05-19T12:28:43.660Z,100702.02
2019-05-19T12:31:47.947Z,100707.17
2019-05-19T12:34:52.253Z,100702.83
2019-05-19T12:37:57.553Z,100711.91
2019-05-19T12:41:01.903Z,100700.26
2019-05-19T12:44:06.295Z,100699.38
2019-05-19T12:47:10.570Z,100698.53
2019-05-19T12:50:15.891Z,100699.44
2019-05-19T12:53:20.204Z,100697.78
2019-05-19T12:56:38.569Z,100690.12
2019-05-19T12:59:30.536Z,100687.19
2019-05-19T13:02:37.988Z,100688.09
2019-05-19T13:05:41.214Z,100677.71
2019-05-19T13:08:45.596Z,100685.80
2019-05-19T13:11:50.739Z,100684.87
2019-05-19T13:14:55.091Z,100679.40
2019-05-19T13:17:59.420Z,100682.73
2019-05-19T13:21:03.718Z,100679.59
2019-05-19T13:24:08.093Z,100686.32
2019-05-19T13:27:12.418Z,100678.93
2019-05-19T13:30:16.945Z,100683.25
2019-05-19T13:33:21.236Z,100688.87
2019-05-19T13:36:25.537Z,100679.86
2019-05-19T13:39:29.814Z,100685.58
2019-05-19T13:42:34.126Z,100684.25
2019-05-19T13:45:38.461Z,100670.32
2019-05-19T13:48:42.744Z,100674.23
2019-05-19T13:51:47.238Z,100671.30
2019-05-19T13:54:51.557Z,100671.78
2019-05-19T13:57:56.119Z,100662.88
2019-05-19T14:01:00.419Z,100665.22
2019-05-19T14:04:06.175Z,100658.81
2019-05-19T14:07:10.565Z,100660.94
2019-05-19T14:10:15.050Z,100659.16
2019-05-19T14:13:19.369Z,100665.98
2019-05-19T14:16:23.713Z,100655.55
2019-05-19T14:19:28.075Z,100651.83
2019-05-19T14:22:32.417Z,100660.66
2019-05-19T14:25:38.191Z,100649.50
2019-05-19T14:28:42.838Z,100648.64
2019-05-19T14:31:47.200Z,100645.95
2019-05-19T14:34:51.510Z,100643.92
2019-05-19T14:37:55.796Z,100642.02
2019-05-19T14:41:00.071Z,100641.52
2019-05-19T14:44:05.008Z,100635.41
2019-05-19T14:47:09.482Z,100630.97
2019-05-19T14:50:14.629Z,100632.02
2019-05-19T14:53:18.974Z,100626.36
2019-05-19T14:56:26.117Z,100625.78
2019-05-19T14:59:30.396Z,100631.44
2019-05-19T15:02:34.708Z,100624.14
2019-05-19T15:05:40.480Z,100631.41
2019-05-19T15:08:44.785Z,100630.16
2019-05-19T15:11:49.084Z,100625.31
2019-05-19T15:14:53.383Z,100625.30
2019-05-19T15:17:57.723Z,100625.73
2019-05-19T15:21:02.031Z,100624.30
2019-05-19T15:24:06.429Z,100620.95
2019-05-19T15:27:10.743Z,100612.05
2019-05-19T15:30:15.536Z,100606.41
2019-05-19T15:33:19.811Z,100601.23
2019-05-19T15:36:25.923Z,100600.23
2019-05-19T15:39:30.286Z,100596.71
2019-05-19T15:42:34.581Z,100590.79
2019-05-19T15:45:38.985Z,100586.24
2019-05-19T15:48:43.296Z,100593.99
2019-05-19T15:52:00.891Z,100589.05
2019-05-19T15:54:53.640Z,100586.19
2019-05-19T15:57:58.009Z,100587.83
2019-05-19T16:01:03.070Z,100578.91
2019-05-19T16:04:07.380Z,100576.14
2019-05-19T16:07:11.792Z,100573.67
2019-05-19T16:10:17.694Z,100577.81
2019-05-19T16:13:22.241Z,100562.04
2019-05-19T16:16:26.559Z,100569.63
2019-05-19T16:19:30.849Z,100572.83
2019-05-19T16:22:35.159Z,100570.59
2019-05-19T16:25:39.440Z,100561.23
2019-05-19T16:28:43.928Z,100569.19
2019-05-19T16:31:48.252Z,100561.19
2019-05-19T16:34:52.961Z,100573.78
2019-05-19T16:37:57.452Z,100571.39
2019-05-19T16:41:03.909Z,100576.19
2019-05-19T16:44:08.265Z,100582.59
2019-05-19T16:47:13.388Z,100582.42
2019-05-19T16:50:18.678Z,100583.44
2019-05-19T16:53:22.998Z,100579.78
2019-05-19T16:56:28.299Z,100579.73
2019-05-19T16:59:32.604Z,100580.99
2019-05-19T17:02:38.316Z,100583.79
2019-05-19T17:05:42.659Z,100579.73
2019-05-19T17:08:46.983Z,100582.08
2019-05-19T17:11:52.740Z,100583.38
2019-05-19T17:14:57.051Z,100584.28
2019-05-19T17:18:01.357Z,100583.78
2019-05-19T17:21:05.977Z,100581.69
2019-05-19T17:24:10.371Z,100578.16
2019-05-19T17:27:15.156Z,100581.29
2019-05-19T17:30:20.230Z,100585.54
2019-05-19T17:33:24.532Z,100577.41
2019-05-19T17:36:28.815Z,100580.11
2019-05-19T17:39:33.126Z,100586.84
2019-05-19T17:42:37.517Z,100592.33
2019-05-19T17:45:41.870Z,100589.30
2019-05-19T17:48:46.237Z,100583.17
2019-05-19T17:51:50.626Z,100585.34
2019-05-19T17:54:54.911Z,100585.61
2019-05-19T17:57:59.303Z,100586.02
2019-05-19T18:01:03.590Z,100584.00
2019-05-19T18:04:07.973Z,100596.08
2019-05-19T18:07:12.408Z,100593.75
2019-05-19T18:10:16.685Z,100598.19
2019-05-19T18:13:22.098Z,100597.20
2019-05-19T18:16:26.797Z,100603.78
2019-05-19T18:19:31.213Z,100611.28
2019-05-19T18:22:35.541Z,100615.53
2019-05-19T18:25:39.834Z,100617.94
2019-05-19T18:28:44.136Z,100617.43
2019-05-19T18:31:48.516Z,100612.75
2019-05-19T18:34:52.806Z,100614.11
2019-05-19T18:37:57.225Z,100613.57
2019-05-19T18:41:02.708Z,100607.76
2019-05-19T18:44:07.088Z,100603.97
2019-05-19T18:47:11.416Z,100605.66
2019-05-19T18:50:16.218Z,100610.61
2019-05-19T18:53:20.643Z,100609.58
2019-05-19T18:56:26.842Z,100612.14
2019-05-19T18:59:46.053Z,100613.27
2019-05-19T19:02:37.498Z,100615.65
2019-05-19T19:05:41.973Z,100618.33
2019-05-19T19:08:46.402Z,100619.13
2019-05-19T19:11:51.022Z,100620.66
2019-05-19T19:14:56.819Z,100620.16
2019-05-19T19:18:01.141Z,100624.91
2019-05-19T19:21:05.636Z,100623.35
2019-05-19T19:24:09.972Z,100631.89
2019-05-19T19:27:14.417Z,100620.52
2019-05-19T19:30:19.211Z,100622.64
2019-05-19T19:33:23.494Z,100622.41
2019-05-19T19:36:27.837Z,100628.54
2019-05-19T19:39:32.298Z,100619.94
2019-05-19T19:42:36.599Z,100619.69
2019-05-19T19:45:41.292Z,100615.09
2019-05-19T19:48:45.633Z,100620.78
2019-05-19T19:51:49.929Z,100621.33
2019-05-19T19:54:54.299Z,100620.78
2019-05-19T19:57:58.684Z,100629.13
2019-05-19T20:01:02.974Z,100637.70
2019-05-19T20:04:07.266Z,100637.23
2019-05-19T20:07:11.580Z,100641.66
2019-05-19T20:10:16.028Z,100643.63
2019-05-19T20:13:21.338Z,100648.94
2019-05-19T20:16:25.755Z,100653.62
2019-05-19T20:19:30.110Z,100650.27
2019-05-19T20:22:34.548Z,100643.70
2019-05-19T20:25:38.834Z,100655.89
2019-05-19T20:28:43.120Z,100652.46
2019-05-19T20:31:47.438Z,100650.62
2019-05-19T20:34:51.734Z,100647.31
2019-05-19T20:37:56.058Z,100652.92
2019-05-19T20:41:00.380Z,100653.17
2019-05-19T20:44:06.094Z,100650.63
2019-05-19T20:47:10.376Z,100655.02
2019-05-19T20:50:14.823Z,100658.33
2019-05-19T20:53:19.118Z,100653.80
2019-05-19T20:56:23.404Z,100665.27
2019-05-19T20:59:27.714Z,100658.48
2019-05-19T21:02:32.096Z,100655.09
2019-05-19T21:05:37.803Z,100653.80
2019-05-19T21:08:43.606Z,100651.91
2019-05-19T21:11:47.888Z,100656.30
2019-05-19T21:14:52.178Z,100658.44
2019-05-19T21:17:56.599Z,100660.44
2019-05-19T21:21:00.927Z,100656.63
2019-05-19T21:24:05.212Z,100651.17
2019-05-19T21:27:09.491Z,100651.51
2019-05-19T21:30:16.491Z,100660.02
2019-05-19T21:33:20.814Z,100652.11
2019-05-19T21:36:25.126Z,100653.39
2019-05-19T21:39:29.423Z,100653.39
2019-05-19T21:42:35.563Z,100652.71
2019-05-19T21:45:40.971Z,100650.11
2019-05-19T21:48:45.281Z,100654.43
2019-05-19T21:51:49.555Z,100653.38
2019-05-19T21:54:53.873Z,100638.94
2019-05-19T21:57:58.158Z,100651.92
2019-05-19T22:01:02.618Z,100651.39
2019-05-19T22:04:06.904Z,100651.51
2019-05-19T22:07:15.351Z,100645.18
2019-05-19T22:10:19.825Z,100641.70
2019-05-19T22:13:24.096Z,100639.20
2019-05-19T22:16:28.366Z,100641.76
2019-05-19T22:19:32.638Z,100640.34
2019-05-19T22:22:40.192Z,100640.46
2019-05-19T22:25:44.483Z,100638.41
2019-05-19T22:28:48.778Z,100640.40
2019-05-19T22:31:53.050Z,100639.03
2019-05-19T22:34:57.364Z,100645.23
2019-05-19T22:38:01.638Z,100644.42
2019-05-19T22:41:06.039Z,100647.25
2019-05-19T22:44:10.336Z,100644.97
2019-05-19T22:47:14.821Z,100638.52
2019-05-19T22:50:19.418Z,100638.52
2019-05-19T22:53:23.690Z,100641.09
2019-05-19T22:56:27.967Z,100630.25
2019-05-19T22:59:32.234Z,100627.16
2019-05-19T23:02:36.664Z,100631.39
2019-05-19T23:05:40.956Z,100624.17
2019-05-19T23:08:45.270Z,100624.90
2019-05-19T23:11:50.559Z,100614.47
2019-05-19T23:14:54.818Z,100611.80
2019-05-19T23:17:59.096Z,100619.05
2019-05-19T23:21:03.383Z,100608.05
2019-05-19T23:24:07.687Z,100608.23
2019-05-19T23:27:11.987Z,100616.27
2019-05-19T23:30:16.570Z,100607.63
2019-05-19T23:33:20.904Z,100603.16
2019-05-19T23:36:25.193Z,100605.22
2019-05-19T23:39:30.985Z,100606.87
2019-05-19T23:42:35.419Z,100606.87
2019-05-19T23:45:39.712Z,100602.20
2019-05-19T23:48:44.221Z,100595.48
2019-05-19T23:51:48.496Z,100594.33
2019-05-19T23:54:54.859Z,100586.77
2019-05-19T23:57:59.246Z,100578.56
